Time;durP1;ratioP1;P1;durP2;ratioP2;P2;SDS_P1;SDS_P2;PMS_P1;PMS_P2;Temp;Humidity;BMP_temperature;BMP_pressure;BME280_temperature;BME280_humidity;BME280_pressure;Samples;Min_cycle;Max_cycle;Signal;HPM_P1;HPM_P2
2022/04/20 00:00:26;;;;;;;59.10;26.90;;;;;;;8.54;74.03;98695.86;25143;1313;3026969;-70
2022/04/20 00:02:55;;;;;;;48.10;19.90;;;;;;;8.39;74.55;98702.00;25184;1313;3055369;-70
2022/04/20 00:05:25;;;;;;;52.00;22.00;;;;;;;8.85;73.77;98702.91;25485;1315;3027155;-71
2022/04/20 00:08:07;;;;;;;44.20;22.40;;;;;;;9.39;71.83;98705.99;25899;1315;3071717;-70
2022/04/20 00:10:41;;;;;;;47.60;24.00;;;;;;;9.40;71.44;98712.19;25887;1316;3048882;-69
2022/04/20 00:13:11;;;;;;;55.40;25.80;;;;;;;9.19;72.11;98718.18;25331;1316;3026769;-69
2022/04/20 00:15:40;;;;;;;56.40;25.10;;;;;;;8.96;73.04;98721.23;25134;1316;3026781;-70
2022/04/20 00:18:30;;;;;;;61.10;26.70;;;;;;;8.83;73.48;98722.11;25113;1319;3048221;-69
2022/04/20 00:20:59;;;;;;;81.80;29.30;;;;;;;8.71;73.57;98727.23;25140;1316;3026225;-69
2022/04/20 00:23:28;;;;;;;70.80;29.40;;;;;;;8.33;75.07;98731.69;25115;1316;3026472;-70
2022/04/20 00:26:01;;;;;;;56.20;18.10;;;;;;;8.21;75.93;98735.23;25141;1316;3050740;-70
2022/04/20 00:28:30;;;;;;;59.30;22.40;;;;;;;8.88;74.46;98730.16;25120;1316;3026554;-69
2022/04/20 00:31:00;;;;;;;54.30;20.30;;;;;;;9.27;72.57;98733.55;25085;1319;3069393;-69
2022/04/20 00:33:29;;;;;;;62.80;23.30;;;;;;;9.59;71.91;98738.92;25107;1316;3028166;-70
2022/04/20 00:36:02;;;;;;;56.00;20.40;;;;;;;9.34;71.65;98741.79;25143;1316;3026510;-68
2022/04/20 00:38:32;;;;;;;53.70;19.60;;;;;;;8.83;73.03;98748.29;25169;1316;3027515;-69
2022/04/20 00:41:02;;;;;;;55.10;21.80;;;;;;;8.64;73.69;98753.17;25140;1315;3027280;-69
2022/04/20 00:43:31;;;;;;;60.90;21.50;;;;;;;8.39;73.88;98750.00;25142;1316;3028268;-69
2022/04/20 00:46:05;;;;;;;57.50;23.40;;;;;;;8.27;73.82;98751.66;25161;1316;3052392;-69
2022/04/20 00:48:54;;;;;;;45.70;17.40;;;;;;;8.20;74.46;98746.12;25113;1313;3059799;-70
2022/04/20 00:51:24;;;;;;;45.60;18.10;;;;;;;8.88;73.21;98744.11;25113;1316;3026090;-70
2022/04/20 00:53:58;;;;;;;52.20;18.70;;;;;;;9.42;71.92;98740.38;25130;1316;3026310;-70
2022/04/20 00:56:27;;;;;;;58.90;24.70;;;;;;;9.25;71.47;98737.32;25193;1313;3027085;-70
2022/04/20 00:58:57;;;;;;;70.30;27.00;;;;;;;9.09;71.71;98729.11;25173;1313;3026657;-70
2022/04/20 01:01:46;;;;;;;60.30;23.50;;;;;;;8.61;72.92;98726.12;25103;1313;3049399;-69
2022/04/20 01:04:20;;;;;;;69.60;26.20;;;;;;;8.36;73.81;98719.46;25160;1316;3052329;-68
2022/04/20 01:07:11;;;;;;;62.70;25.20;;;;;;;8.15;74.41;98729.48;25127;1314;3055515;-69
2022/04/20 01:10:08;;;;;;;48.90;21.00;;;;;;;8.09;74.72;98733.23;25101;1316;3058826;-69
2022/04/20 01:12:57;;;;;;;55.20;20.20;;;;;;;8.82;73.92;98730.91;25162;1316;3052249;-69
2022/04/20 01:15:50;;;;;;;61.90;23.80;;;;;;;9.34;72.09;98738.16;25140;1316;3055195;-70
2022/04/20 01:18:43;;;;;;;68.00;26.80;;;;;;;9.15;71.84;98736.46;25147;1313;3050582;-70
2022/04/20 01:21:58;;;;;;;83.30;26.80;;;;;;;8.70;72.37;98728.71;25043;1316;3068819;-69
2022/04/20 01:24:49;;;;;;;85.10;32.40;;;;;;;8.32;73.57;98729.11;25147;1315;3050176;-69
2022/04/20 01:27:56;;;;;;;79.50;29.80;;;;;;;8.06;74.37;98726.09;25132;1316;3054707;-69
2022/04/20 01:30:39;;;;;;;94.50;33.40;;;;;;;7.87;74.86;98727.95;25180;1313;3051831;-69
2022/04/20 01:33:19;;;;;;;85.10;29.10;;;;;;;7.74;75.50;98724.73;25112;1316;3059195;-69
2022/04/20 01:35:52;;;;;;;88.10;29.70;;;;;;;8.35;75.08;98718.12;25111;1315;3027724;-68
2022/04/20 01:38:23;;;;;;;102.50;34.40;;;;;;;8.94;72.25;98714.56;25175;1313;3027689;-69
2022/04/20 01:40:52;;;;;;;105.60;36.90;;;;;;;8.75;71.93;98705.00;25134;1313;3027303;-69
2022/04/20 01:43:21;;;;;;;93.40;33.50;;;;;;;8.58;72.14;98710.77;25140;1313;3026754;-69
2022/04/20 01:46:15;;;;;;;74.40;27.90;;;;;;;8.22;72.87;98715.80;25140;1313;3055216;-69
2022/04/20 01:49:09;;;;;;;74.90;27.50;;;;;;;7.90;73.91;98724.79;25169;1313;3053124;-73
2022/04/20 01:51:51;;;;;;;72.50;28.00;;;;;;;7.82;74.02;98726.33;25125;1313;3071823;-69
2022/04/20 01:54:38;;;;;;;85.50;29.40;;;;;;;7.70;73.94;98721.06;25159;1313;3049399;-68
2022/04/20 01:57:27;;;;;;;62.70;21.60;;;;;;;7.48;75.82;98727.80;25171;1316;3052406;-68
2022/04/20 02:00:35;;;;;;;67.60;23.40;;;;;;;8.60;73.37;98712.38;25201;1313;3052532;-68
2022/04/20 02:03:46;;;;;;;63.00;23.10;;;;;;;8.95;71.59;98709.77;25148;1313;3059093;-68
2022/04/20 02:06:15;;;;;;;51.50;21.50;;;;;;;8.66;71.80;98705.18;25139;1313;3026333;-68
2022/04/20 02:09:10;;;;;;;;;;;;;;;8.44;72.65;98706.98;25140;1313;3054400;-68
2022/04/20 02:12:06;;;;;;;38.60;16.70;;;;;;;8.05;73.72;98706.42;25160;1313;3051047;-68
2022/04/20 02:15:13;;;;;;;34.20;16.00;;;;;;;7.59;74.86;98700.17;25163;1313;3071250;-68
2022/04/20 02:18:02;;;;;;;33.30;14.00;;;;;;;7.46;76.03;98695.36;25126;1313;3051747;-68
2022/04/20 02:20:54;;;;;;;25.40;12.30;;;;;;;7.46;76.17;98694.34;25168;1313;3055400;-68
2022/04/20 02:23:23;;;;;;;22.40;10.60;;;;;;;8.17;74.47;98690.30;25164;1313;3026995;-68
2022/04/20 02:26:12;;;;;;;24.90;11.40;;;;;;;8.75;72.01;98695.94;25120;1313;3049348;-67
2022/04/20 02:28:41;;;;;;;26.40;11.50;;;;;;;8.46;71.98;98698.81;25170;1313;3026714;-68
2022/04/20 02:31:23;;;;;;;24.50;12.30;;;;;;;8.32;72.22;98706.64;25135;1315;3055052;-68
2022/04/20 02:33:52;;;;;;;21.90;11.60;;;;;;;8.07;73.04;98714.66;25114;1315;3026987;-68
2022/04/20 02:36:22;;;;;;;19.90;11.60;;;;;;;7.99;72.73;98720.57;25192;1313;3051033;-72
2022/04/20 02:39:11;;;;;;;24.40;11.60;;;;;;;7.78;73.03;98731.06;25110;1316;3051460;-68
2022/04/20 02:41:40;;;;;;;19.60;11.20;;;;;;;7.52;74.08;98736.98;25082;1316;3026531;-68
2022/04/20 02:44:10;;;;;;;16.30;9.40;;;;;;;7.28;74.65;98739.60;25171;1313;3028037;-69
2022/04/20 02:46:39;;;;;;;17.00;9.40;;;;;;;7.80;73.84;98735.81;25169;1313;3056611;-69
2022/04/20 02:49:09;;;;;;;17.90;10.00;;;;;;;8.27;72.31;98734.73;25228;1313;3027359;-68
2022/04/20 02:51:39;;;;;;;18.30;11.00;;;;;;;8.19;71.88;98740.25;25156;1313;3026222;-68
2022/04/20 02:54:09;;;;;;;20.10;11.60;;;;;;;8.08;72.18;98744.74;25185;1313;3026777;-68
2022/04/20 02:56:50;;;;;;;17.50;11.00;;;;;;;7.68;72.99;98748.95;25147;1313;3053555;-69
2022/04/20 02:59:20;;;;;;;25.40;12.70;;;;;;;7.47;73.85;98740.05;25120;1313;3027807;-69
2022/04/20 03:01:50;;;;;;;24.40;12.60;;;;;;;7.33;74.66;98742.66;25126;1313;3026965;-69
2022/04/20 03:04:20;;;;;;;26.30;12.40;;;;;;;7.26;74.77;98744.09;25185;1313;3028509;-68
2022/04/20 03:06:55;;;;;;;17.70;9.20;;;;;;;7.29;74.35;98738.73;25095;1315;3052925;-68
2022/04/20 03:09:47;;;;;;;23.10;12.30;;;;;;;7.93;73.62;98734.02;25143;1315;3057967;-68
2022/04/20 03:12:17;;;;;;;19.30;11.60;;;;;;;8.15;71.88;98742.80;25162;1313;3026406;-68
2022/04/20 03:14:54;;;;;;;21.60;12.40;;;;;;;8.16;71.93;98753.16;25142;1313;3051937;-67
2022/04/20 03:17:36;;;;;;;22.30;13.20;;;;;;;8.03;72.13;98763.95;25118;1316;3053316;-68
2022/04/20 03:20:07;;;;;;;24.50;13.70;;;;;;;7.97;72.10;98762.04;25163;1316;3026900;-67
2022/04/20 03:22:56;;;;;;;19.20;10.70;;;;;;;7.80;72.67;98765.84;25128;1315;3049072;-68
2022/04/20 03:25:26;;;;;;;23.30;12.40;;;;;;;7.75;72.17;98773.27;25128;1313;3026429;-68
2022/04/20 03:28:10;;;;;;;23.20;12.60;;;;;;;7.50;73.48;98780.02;25160;1313;3055188;-69
2022/04/20 03:30:39;;;;;;;19.40;10.10;;;;;;;7.43;73.83;98768.91;25119;1313;3027040;-68
2022/04/20 03:33:09;;;;;;;18.70;10.40;;;;;;;7.97;73.42;98766.55;25112;1313;3054611;-68
2022/04/20 03:35:38;;;;;;;18.40;11.20;;;;;;;8.49;71.68;98766.70;25165;1313;3027503;-68
2022/04/20 03:38:07;;;;;;;21.20;10.60;;;;;;;8.55;70.93;98763.85;25162;1313;3026648;-69
2022/04/20 03:40:37;;;;;;;22.70;12.20;;;;;;;8.37;71.14;98768.30;25173;1313;3026602;-68
2022/04/20 03:43:06;;;;;;;26.60;13.20;;;;;;;8.15;71.68;98771.75;25131;1312;3027560;-68
2022/04/20 03:45:54;;;;;;;22.10;12.10;;;;;;;7.91;72.39;98779.82;25155;1316;3056449;-68
2022/04/20 03:48:24;;;;;;;20.70;11.00;;;;;;;7.77;72.64;98787.08;25122;1313;3036786;-69
2022/04/20 03:50:53;;;;;;;22.90;12.40;;;;;;;7.63;72.66;98789.67;25193;1313;3055700;-68
2022/04/20 03:53:23;;;;;;;24.20;13.40;;;;;;;7.45;73.51;98792.13;25186;1313;3026812;-68
2022/04/20 03:55:54;;;;;;;19.60;10.60;;;;;;;7.31;74.18;98787.54;25099;1315;3025894;-68
2022/04/20 03:58:23;;;;;;;20.40;11.40;;;;;;;7.81;73.26;98781.98;25160;1312;3026435;-68
2022/04/20 04:00:53;;;;;;;21.30;10.80;;;;;;;8.32;71.29;98773.48;25207;1313;3058428;-70
2022/04/20 04:03:22;;;;;;;23.40;13.30;;;;;;;8.36;70.88;98767.80;25130;1313;3026423;-68
2022/04/20 04:05:53;;;;;;;25.40;14.60;;;;;;;8.24;71.08;98770.47;25142;1313;3026244;-68
2022/04/20 04:08:45;;;;;;;31.50;15.50;;;;;;;7.92;72.07;98774.54;25165;1312;3051560;-70
2022/04/20 04:11:15;;;;;;;30.30;15.60;;;;;;;7.67;72.62;98773.23;25115;1316;3026474;-69
2022/04/20 04:13:44;;;;;;;31.70;16.70;;;;;;;7.61;73.21;98779.33;25145;1312;3026466;-69
2022/04/20 04:16:13;;;;;;;34.20;18.10;;;;;;;7.34;74.03;98785.80;25160;1315;3026554;-69
2022/04/20 04:18:43;;;;;;;30.70;15.90;;;;;;;7.21;74.68;98786.02;25189;1313;3070457;-68
2022/04/20 04:21:35;;;;;;;29.10;15.10;;;;;;;7.89;73.59;98789.48;25126;1315;3049819;-69
2022/04/20 04:24:05;;;;;;;29.50;15.20;;;;;;;8.41;71.36;98786.52;25193;1313;3026461;-70
2022/04/20 04:26:36;;;;;;;28.60;15.00;;;;;;;8.51;71.00;98782.61;25183;1313;3026384;-69
2022/04/20 04:29:05;;;;;;;30.40;16.20;;;;;;;8.26;70.85;98785.86;25164;1315;3026628;-68
2022/04/20 04:31:42;;;;;;;32.40;16.90;;;;;;;8.01;71.35;98789.50;25161;1315;3054617;-68
2022/04/20 04:34:13;;;;;;;30.20;17.10;;;;;;;7.79;72.10;98790.30;25857;1313;3026481;-68
2022/04/20 04:36:43;;;;;;;26.30;13.20;;;;;;;7.78;72.22;98799.42;25927;1313;3027244;-68
2022/04/20 04:39:17;;;;;;;33.20;16.30;;;;;;;7.79;71.96;98800.23;25705;1313;3026828;-68
2022/04/20 04:41:48;;;;;;;30.00;16.40;;;;;;;7.66;72.43;98794.23;25190;1315;3026549;-68
2022/04/20 04:44:18;;;;;;;30.00;15.90;;;;;;;7.42;72.88;98792.66;25171;1313;3027694;-69
2022/04/20 04:50:09;;;;;;;27.40;13.60;;;;;;;8.28;71.33;98786.79;25184;1312;3049165;-72
2022/04/20 04:52:38;;;;;;;21.70;12.80;;;;;;;8.69;69.82;98788.34;25087;1316;3028396;-68
2022/04/20 04:55:10;;;;;;;32.30;14.20;;;;;;;8.74;69.13;98799.52;25169;1313;3026761;-70
2022/04/20 04:57:39;;;;;;;23.60;13.60;;;;;;;8.35;69.66;98812.91;25124;1315;3026674;-70
2022/04/20 05:00:11;;;;;;;30.80;14.60;;;;;;;8.24;70.03;98814.46;25146;1313;3026135;-71
2022/04/20 05:02:55;;;;;;;27.60;14.50;;;;;;;8.11;70.03;98821.36;25149;1313;3055809;-71
2022/04/20 05:05:24;;;;;;;30.00;14.50;;;;;;;7.70;71.48;98836.33;25109;1313;3026557;-71
2022/04/20 05:07:54;;;;;;;29.10;14.40;;;;;;;7.56;72.41;98835.02;25132;1313;3026043;-69
2022/04/20 05:10:23;;;;;;;27.00;13.80;;;;;;;7.65;71.77;98841.70;25170;1313;3026679;-69
2022/04/20 05:12:53;;;;;;;28.50;12.90;;;;;;;7.43;72.11;98844.14;25165;1313;3026786;-69
2022/04/20 05:15:41;;;;;;;19.30;10.90;;;;;;;7.58;72.34;98833.20;25167;1314;3067848;-70
2022/04/20 05:18:12;;;;;;;23.90;11.80;;;;;;;8.31;70.36;98822.55;25172;1313;3026811;-70
2022/04/20 05:21:01;;;;;;;19.70;10.80;;;;;;;8.62;68.49;98823.11;25147;1313;3052483;-69
2022/04/20 05:23:31;;;;;;;16.70;9.70;;;;;;;8.73;68.50;98822.65;25186;1313;3026632;-70
2022/04/20 05:26:00;;;;;;;19.40;10.50;;;;;;;8.74;68.34;98830.59;25157;1312;3026936;-69
2022/04/20 05:28:29;;;;;;;21.50;11.50;;;;;;;8.85;67.87;98844.03;25168;1313;3051550;-69
2022/04/20 05:30:59;;;;;;;20.00;11.00;;;;;;;8.71;67.95;98837.06;25181;1313;3026904;-70
2022/04/20 05:33:28;;;;;;;18.80;11.30;;;;;;;8.71;67.32;98834.47;25159;1313;3026918;-70
2022/04/20 05:35:57;;;;;;;19.90;11.70;;;;;;;8.44;67.98;98829.29;25203;1313;3055369;-69
2022/04/20 05:44:08;;;;;;;20.30;11.70;;;;;;;7.73;69.82;98837.19;25159;1313;3051523;-72
2022/04/20 05:46:38;;;;;;;19.10;11.70;;;;;;;7.61;70.49;98842.09;25199;1313;3026278;-71
2022/04/20 05:49:31;;;;;;;19.30;11.30;;;;;;;7.64;70.55;98850.80;25178;1313;3051327;-69
2022/04/20 05:52:01;;;;;;;19.20;10.60;;;;;;;7.71;70.62;98855.11;25148;1313;3026399;-68
2022/04/20 05:54:30;;;;;;;16.60;9.50;;;;;;;8.32;69.84;98845.17;25141;1316;3026355;-69
2022/04/20 05:56:59;;;;;;;18.50;11.10;;;;;;;8.88;67.48;98835.79;25184;1313;3050664;-69
2022/04/20 05:59:43;;;;;;;18.70;10.30;;;;;;;9.10;66.64;98835.61;25153;1315;3070835;-69
2022/04/20 06:02:14;;;;;;;23.00;12.30;;;;;;;9.03;66.07;98834.20;25154;1315;3026557;-68
2022/04/20 06:04:43;;;;;;;21.00;11.20;;;;;;;9.00;66.22;98839.77;25185;1312;3026470;-68
2022/04/20 06:07:36;;;;;;;20.40;11.60;;;;;;;8.60;66.57;98836.36;25138;1313;3055662;-68
2022/04/20 06:10:48;;;;;;;23.20;12.60;;;;;;;8.37;67.65;98842.77;25147;1315;3055191;-69
2022/04/20 06:13:20;;;;;;;20.70;12.50;;;;;;;8.38;67.98;98836.64;25130;1316;3026509;-70
2022/04/20 06:16:17;;;;;;;25.80;13.80;;;;;;;8.25;68.54;98827.13;25130;1316;3053105;-68
2022/04/20 06:18:56;;;;;;;29.30;14.80;;;;;;;8.45;68.48;98817.90;25124;1316;3051158;-69
2022/04/20 06:21:32;;;;;;;25.20;13.00;;;;;;;8.75;67.33;98807.84;25125;1316;3067232;-68
2022/04/20 06:24:21;;;;;;;26.30;15.00;;;;;;;8.93;66.97;98806.33;25151;1315;3051938;-68
2022/04/20 06:27:13;;;;;;;35.20;15.80;;;;;;;9.06;67.02;98813.55;25133;1316;3054690;-68
2022/04/20 06:29:57;;;;;;;33.10;17.70;;;;;;;9.11;66.34;98819.19;25130;1315;3055531;-71
2022/04/20 06:32:36;;;;;;;31.20;16.80;;;;;;;9.03;66.36;98828.23;25171;1313;3059163;-72
2022/04/20 06:35:24;;;;;;;31.40;16.00;;;;;;;9.21;66.36;98838.93;25141;1313;3052358;-69
2022/04/20 06:38:18;;;;;;;30.60;16.70;;;;;;;9.10;65.74;98839.49;25136;1313;3055499;-70
2022/04/20 06:41:10;;;;;;;31.50;17.40;;;;;;;9.30;65.59;98832.97;25134;1313;3054267;-70
2022/04/20 06:43:58;;;;;;;34.00;16.90;;;;;;;9.45;65.51;98838.95;25134;1313;3069675;-70
2022/04/20 06:47:02;;;;;;;33.50;17.60;;;;;;;9.63;65.01;98839.02;25148;1313;3051790;-70
2022/04/20 06:49:55;;;;;;;28.60;15.20;;;;;;;9.65;64.60;98846.54;25061;1313;3055022;-70
2022/04/20 06:58:44;;;;;;;28.80;14.60;;;;;;;9.76;64.46;98834.98;25152;1313;3052911;-70
2022/04/20 07:01:23;;;;;;;29.10;14.60;;;;;;;9.98;64.25;98828.28;25183;1313;3053663;-69
2022/04/20 07:04:10;;;;;;;22.90;12.90;;;;;;;9.79;63.92;98827.25;25198;1313;3054857;-70
2022/04/20 07:07:05;;;;;;;26.40;13.80;;;;;;;9.75;63.50;98820.86;25159;1313;3071881;-70
2022/04/20 07:10:01;;;;;;;23.00;13.50;;;;;;;9.66;64.08;98813.93;25153;1313;3051103;-69
2022/04/20 07:13:08;;;;;;;21.80;12.20;;;;;;;9.73;63.68;98799.50;25201;1313;3055084;-70
2022/04/20 07:15:38;;;;;;;23.20;13.40;;;;;;;9.60;64.07;98790.59;25147;1313;3027053;-70
2022/04/20 07:18:27;;;;;;;17.80;11.10;;;;;;;9.70;64.28;98796.91;25165;1313;3058422;-71
2022/04/20 07:21:15;;;;;;;16.00;10.20;;;;;;;9.68;63.82;98790.73;25181;1313;3049403;-71
2022/04/20 07:24:09;;;;;;;16.20;9.50;;;;;;;9.88;63.47;98794.30;25174;1313;3053029;-70
2022/04/20 07:26:58;;;;;;;16.00;9.60;;;;;;;9.99;62.94;98800.41;25135;1313;3053862;-69
2022/04/20 07:29:38;;;;;;;17.80;11.70;;;;;;;9.89;62.99;98802.11;25131;1313;3071663;-70
2022/04/20 07:32:07;;;;;;;16.50;10.10;;;;;;;9.87;63.32;98807.52;25186;1313;3027798;-70
2022/04/20 07:35:00;;;;;;;17.60;10.00;;;;;;;9.88;62.98;98816.54;25119;1313;3052953;-70
2022/04/20 07:37:41;;;;;;;16.50;10.60;;;;;;;9.74;63.67;98824.05;25168;1313;3071491;-70
2022/04/20 07:40:31;;;;;;;16.40;10.50;;;;;;;9.90;63.68;98834.53;25236;1313;3049431;-69
2022/04/20 07:43:43;;;;;;;15.20;10.10;;;;;;;9.93;62.88;98835.09;25123;1313;3054950;-69
2022/04/20 07:46:29;;;;;;;19.50;11.10;;;;;;;9.85;63.60;98842.41;25188;1312;3055429;-72
2022/04/20 07:52:41;;;;;;;21.10;12.00;;;;;;;9.96;63.92;98845.88;25181;1313;3052517;-69
2022/04/20 07:55:16;;;;;;;22.60;11.40;;;;;;;9.95;63.57;98849.27;25141;1313;3051808;-70
2022/04/20 07:57:59;;;;;;;19.70;11.60;;;;;;;10.02;63.83;98848.79;25203;1313;3054457;-70
2022/04/20 08:01:14;;;;;;;19.50;11.70;;;;;;;10.07;63.90;98853.36;25133;1313;3067519;-70
2022/04/20 08:03:55;;;;;;;19.60;11.00;;;;;;;10.11;64.11;98853.95;25164;1313;3051965;-70
2022/04/20 08:06:43;;;;;;;16.00;10.70;;;;;;;10.12;63.75;98855.11;25173;1313;3051839;-71
2022/04/20 08:09:14;;;;;;;16.40;10.10;;;;;;;10.03;63.71;98853.52;25187;1313;3028674;-69
2022/04/20 08:11:43;;;;;;;17.00;11.10;;;;;;;10.01;64.08;98851.84;25145;1313;3026746;-70
2022/04/20 08:14:15;;;;;;;16.70;10.70;;;;;;;9.91;64.30;98853.04;25158;1313;3026396;-70
2022/04/20 08:16:49;;;;;;;17.90;11.20;;;;;;;9.73;64.82;98852.34;25184;1312;3052240;-70
2022/04/20 08:20:05;;;;;;;16.40;10.40;;;;;;;9.84;64.90;98852.45;25089;1312;3050381;-70
2022/04/20 08:22:43;;;;;;;44.70;19.20;;;;;;;9.90;65.19;98847.86;25148;1313;3070040;-70
2022/04/20 08:25:32;;;;;;;53.30;23.00;;;;;;;9.85;65.53;98842.30;25153;1313;3049144;-70
2022/04/20 08:28:05;;;;;;;43.00;22.50;;;;;;;9.84;66.34;98842.30;25123;1313;3026460;-70
2022/04/20 08:30:36;;;;;;;32.00;16.70;;;;;;;9.69;67.00;98840.16;25134;1313;3026932;-71
2022/04/20 08:33:07;;;;;;;46.20;22.30;;;;;;;9.81;67.60;98838.86;25145;1312;3030247;-70
2022/04/20 08:35:37;;;;;;;38.10;18.50;;;;;;;9.76;67.44;98842.86;25207;1313;3026581;-69
2022/04/20 08:38:07;;;;;;;19.20;12.00;;;;;;;9.71;68.07;98844.58;25129;1313;3026660;-70
2022/04/20 08:40:36;;;;;;;16.80;11.20;;;;;;;9.77;68.00;98842.77;25174;1313;3056616;-70
2022/04/20 08:43:05;;;;;;;18.10;11.30;;;;;;;9.73;68.54;98843.56;25163;1313;3026483;-71
2022/04/20 08:45:40;;;;;;;17.20;8.70;;;;;;;9.59;68.79;98844.33;25194;1313;3052047;-71
2022/04/20 08:48:29;;;;;;;15.10;9.20;;;;;;;10.33;67.32;98842.19;25134;1312;3056420;-71
2022/04/20 08:50:59;;;;;;;22.20;10.30;;;;;;;10.84;65.83;98841.42;25154;1312;3026302;-70
2022/04/20 08:53:28;;;;;;;22.30;11.10;;;;;;;10.82;65.72;98848.55;25139;1313;3026778;-70
2022/04/20 08:58:53;;;;;;;28.40;13.10;;;;;;;10.89;66.08;98843.69;25155;1312;3049538;-70
2022/04/20 09:01:22;;;;;;;21.10;11.80;;;;;;;10.68;66.36;98844.81;25230;1313;3026260;-70
2022/04/20 09:03:53;;;;;;;25.10;12.80;;;;;;;10.34;66.67;98846.59;25930;1313;3026604;-71
2022/04/20 09:06:45;;;;;;;23.40;11.80;;;;;;;10.42;66.89;98843.48;25900;1313;3049892;-72
2022/04/20 09:09:18;;;;;;;19.50;12.40;;;;;;;10.47;67.41;98848.70;25708;1314;3055617;-70
2022/04/20 09:12:18;;;;;;;20.40;12.30;;;;;;;10.46;66.83;98849.52;25212;1315;3053751;-70
2022/04/20 09:14:50;;;;;;;24.30;11.20;;;;;;;10.21;67.83;98854.52;25133;1314;3072210;-70
2022/04/20 09:17:44;;;;;;;22.80;12.30;;;;;;;10.10;67.04;98848.96;25141;1316;3051075;-70
2022/04/20 09:20:17;;;;;;;21.60;12.70;;;;;;;10.09;67.56;98849.89;25192;1316;3054491;-70
2022/04/20 09:23:08;;;;;;;20.10;12.20;;;;;;;10.09;68.26;98852.20;25105;1315;3052644;-70
2022/04/20 09:25:41;;;;;;;22.70;12.30;;;;;;;9.94;68.57;98853.57;25148;1315;3026804;-70
2022/04/20 09:28:29;;;;;;;25.10;12.70;;;;;;;9.89;68.68;98848.10;25077;1315;3052287;-68
2022/04/20 09:30:58;;;;;;;25.00;13.50;;;;;;;9.99;68.94;98847.98;25101;1316;3027202;-68
2022/04/20 09:33:44;;;;;;;23.80;13.20;;;;;;;9.96;68.64;98850.79;25174;1316;3058452;-68
2022/04/20 09:36:14;;;;;;;21.40;12.70;;;;;;;9.77;68.83;98849.73;25115;1316;3052631;-68
2022/04/20 09:39:03;;;;;;;19.10;12.60;;;;;;;9.75;68.72;98850.10;25119;1316;3026842;-69
2022/04/20 09:41:59;;;;;;;21.00;13.10;;;;;;;9.71;69.01;98854.19;25134;1316;3058451;-67
2022/04/20 09:44:29;;;;;;;20.20;10.90;;;;;;;9.77;69.26;98854.33;25151;1315;3048508;-66
2022/04/20 09:49:57;;;;;;;22.20;10.60;;;;;;;11.13;65.76;98858.05;25162;1314;3051165;-70
2022/04/20 09:52:40;;;;;;;20.90;11.40;;;;;;;10.89;65.94;98863.14;25099;1315;3071749;-68
2022/04/20 09:55:12;;;;;;;17.60;12.70;;;;;;;10.53;67.43;98870.89;25101;1316;3051460;-70
2022/04/20 09:57:42;;;;;;;20.70;12.70;;;;;;;10.30;69.15;98873.71;25176;1315;3026143;-68
2022/04/20 10:00:15;;;;;;;21.70;12.30;;;;;;;10.17;69.75;98879.27;25181;1316;3026673;-67
2022/04/20 10:03:04;;;;;;;24.80;14.50;;;;;;;9.82;70.87;98886.69;25142;1315;3056530;-69
2022/04/20 10:05:36;;;;;;;23.70;13.40;;;;;;;9.62;72.56;98889.04;25186;1315;3026625;-68
2022/04/20 10:08:05;;;;;;;22.40;14.20;;;;;;;9.43;73.25;98891.84;25175;1316;3027006;-69
2022/04/20 10:10:35;;;;;;;20.90;11.30;;;;;;;9.24;74.37;98889.23;25159;1315;3027322;-68
2022/04/20 10:13:04;;;;;;;17.60;10.70;;;;;;;9.60;73.28;98890.11;25143;1315;3027650;-69
2022/04/20 10:18:39;;;;;;;19.90;12.70;;;;;;;10.55;70.40;98883.39;25139;1315;3054594;-67
2022/04/20 10:21:11;;;;;;;22.70;12.60;;;;;;;10.63;69.44;98883.01;25111;1316;3068588;-67
2022/04/20 10:23:48;;;;;;;19.50;13.00;;;;;;;10.50;69.39;98874.27;25163;1315;3049138;-65
2022/04/20 10:26:17;;;;;;;22.80;12.80;;;;;;;10.66;69.66;98873.00;25149;1316;3026468;-70
2022/04/20 10:29:17;;;;;;;23.80;12.70;;;;;;;10.80;68.64;98873.19;25134;1315;3052687;-67
2022/04/20 10:31:51;;;;;;;23.80;12.10;;;;;;;10.95;68.57;98876.68;25104;1316;3058974;-70
2022/04/20 10:34:21;;;;;;;18.60;11.70;;;;;;;10.65;68.77;98884.22;25168;1316;3052161;-69
2022/04/20 10:37:25;;;;;;;17.70;10.50;;;;;;;10.73;67.70;98876.65;25137;1314;3053755;-68
2022/04/20 10:40:16;;;;;;;17.90;8.90;;;;;;;10.65;68.13;98883.70;25219;1315;3054747;-66
2022/04/20 10:43:16;;;;;;;17.70;11.00;;;;;;;10.48;68.32;98884.88;25124;1316;3069746;-71
2022/04/20 10:46:06;;;;;;;15.80;8.50;;;;;;;10.61;68.12;98886.81;25150;1315;3049184;-69
2022/04/20 10:48:52;;;;;;;15.40;8.40;;;;;;;10.36;68.97;98892.34;25179;1315;3026062;-72
2022/04/20 10:51:34;;;;;;;17.80;8.50;;;;;;;10.49;69.15;98894.11;25163;1314;3053754;-70
2022/04/20 10:54:22;;;;;;;13.70;8.00;;;;;;;10.21;68.92;98895.98;25158;1315;3060637;-72
2022/04/20 10:57:00;;;;;;;11.30;6.90;;;;;;;10.04;68.71;98901.52;25112;1316;3049040;-71
2022/04/20 10:59:29;;;;;;;11.00;6.90;;;;;;;9.87;68.50;98900.54;25164;1316;3055369;-66
2022/04/20 11:01:58;;;;;;;9.80;5.60;;;;;;;9.83;68.75;98896.63;25162;1316;3026497;-68
2022/04/20 11:04:50;;;;;;;10.60;6.20;;;;;;;9.82;69.24;98889.30;25190;1316;3068626;-70
2022/04/20 11:07:26;;;;;;;6.90;4.00;;;;;;;9.82;69.40;98891.23;25180;1316;3026377;-69
2022/04/20 11:10:02;;;;;;;7.80;4.90;;;;;;;10.66;67.61;98882.08;24621;1316;3707683;-70
2022/04/20 11:18:38;;;;;;;12.10;6.60;;;;;;;11.61;63.21;98876.16;25151;1316;3051836;-70
2022/04/20 11:21:26;;;;;;;11.20;5.90;;;;;;;11.67;62.89;98882.67;25179;1316;3055390;-68
2022/04/20 11:23:57;;;;;;;9.60;5.60;;;;;;;11.24;63.55;98888.29;25125;1316;3026492;-66
2022/04/20 11:26:28;;;;;;;11.00;6.20;;;;;;;10.99;64.28;98883.59;25120;1316;3050157;-68
2022/04/20 11:29:02;;;;;;;27.20;9.70;;;;;;;11.07;64.11;98875.54;25193;1316;3026738;-69
2022/04/20 11:31:40;;;;;;;12.40;6.50;;;;;;;10.86;64.85;98883.31;25134;1316;3053920;-67
2022/04/20 11:34:11;;;;;;;15.10;6.80;;;;;;;10.97;64.84;98882.74;25160;1316;3068346;-69
2022/04/20 11:36:44;;;;;;;19.00;7.40;;;;;;;10.79;64.24;98879.44;25171;1315;3026661;-72
2022/04/20 11:39:16;;;;;;;12.40;7.00;;;;;;;10.63;64.51;98881.75;25137;1316;3026897;-68
2022/04/20 11:42:07;;;;;;;14.10;6.70;;;;;;;10.35;63.80;98877.73;25179;1316;3026886;-71
2022/04/20 11:44:41;;;;;;;11.20;6.00;;;;;;;10.22;63.66;98880.84;25113;1316;3059125;-69
2022/04/20 11:47:40;;;;;;;12.10;5.60;;;;;;;10.01;63.78;98874.76;25134;1316;3049702;-69
2022/04/20 11:50:10;;;;;;;13.60;6.90;;;;;;;10.06;64.61;98882.34;25165;1316;3026911;-71
2022/04/20 11:52:59;;;;;;;10.90;5.50;;;;;;;10.22;63.81;98881.56;25146;1315;3051695;-69
2022/04/20 11:56:07;;;;;;;9.20;4.00;;;;;;;10.34;59.68;98876.25;25013;1322;3071586;-71
2022/04/20 11:58:39;;;;;;;8.20;3.90;;;;;;;10.33;58.49;98881.17;25084;1316;3026134;-73
2022/04/20 12:01:29;;;;;;;7.40;3.30;;;;;;;10.39;59.29;98881.33;25154;1315;3052450;-70
2022/04/20 12:04:00;;;;;;;10.30;4.00;;;;;;;10.39;60.10;98881.85;25144;1315;3026734;-70
2022/04/20 12:06:59;;;;;;;7.10;4.00;;;;;;;10.15;61.47;98887.64;25154;1316;3058875;-73
2022/04/20 12:09:29;;;;;;;7.80;4.10;;;;;;;10.06;62.98;98892.47;25106;1316;3053954;-76
2022/04/20 12:12:18;;;;;;;9.80;4.10;;;;;;;10.12;63.02;98888.73;25277;1316;3052708;-73
2022/04/20 12:14:48;;;;;;;7.00;3.20;;;;;;;9.95;63.08;98889.85;25160;1316;3028736;-74
2022/04/20 12:17:20;;;;;;;7.70;3.30;;;;;;;9.88;63.55;98880.16;25158;1316;3026243;-72
2022/04/20 12:19:53;;;;;;;8.30;3.80;;;;;;;10.03;63.41;98874.30;25116;1318;3053636;-76
2022/04/20 12:22:22;;;;;;;8.90;3.30;;;;;;;10.20;62.91;98872.92;25096;1316;3026919;-73
2022/04/20 12:25:11;;;;;;;9.10;2.80;;;;;;;10.43;60.28;98868.77;25159;1315;3027309;-74
2022/04/20 12:27:51;;;;;;;6.10;2.60;;;;;;;10.69;57.47;98877.46;25131;1316;3052959;-74
2022/04/20 12:30:48;;;;;;;4.00;2.80;;;;;;;10.51;56.84;98872.58;25118;1315;3051547;-70
2022/04/20 12:33:22;;;;;;;3.60;2.60;;;;;;;10.13;55.86;98885.73;25086;1315;3070866;-72
2022/04/20 12:36:06;;;;;;;6.50;2.90;;;;;;;10.40;55.14;98873.55;25155;1315;3026488;-75